Time;durP1;ratioP1;P1;durP2;ratioP2;P2;SDS_P1;SDS_P2;PMS_P1;PMS_P2;Temp;Humidity;BMP_temperature;BMP_pressure;BME280_temperature;BME280_humidity;BME280_pressure;Samples;Min_cycle;Max_cycle;Signal;HPM_P1;HPM_P2
2021/03/30 00:00:22;;;;;;;;;;;7.80;76.60;;;;;;5087395;28;19920;-70
2021/03/30 00:02:48;;;;;;;;;;;7.90;76.00;;;;;;5083986;28;19957;-69
2021/03/30 00:05:14;;;;;;;;;;;7.90;76.20;;;;;;5088733;28;20329;-70
2021/03/30 00:07:39;;;;;;;;;;;7.80;76.90;;;;;;5083292;28;20362;-70
2021/03/30 00:10:06;;;;;;;;;;;7.70;77.20;;;;;;5082335;28;19916;-70
2021/03/30 00:12:31;;;;;;;;;;;7.70;77.00;;;;;;5076805;28;19912;-69
2021/03/30 00:14:57;;;;;;;;;;;7.70;77.60;;;;;;5084044;28;19919;-70
2021/03/30 00:17:22;;;;;;;;;;;7.60;78.30;;;;;;5084053;28;19924;-69
2021/03/30 00:19:48;;;;;;;;;;;7.40;79.40;;;;;;5082547;28;20021;-69
2021/03/30 00:22:13;;;;;;;;;;;7.20;80.30;;;;;;5077022;28;19923;-68
2021/03/30 00:24:39;;;;;;;;;;;6.90;81.60;;;;;;5080467;28;20258;-69
2021/03/30 00:27:05;;;;;;;;;;;6.70;81.60;;;;;;5085589;28;19913;-69
2021/03/30 00:29:42;;;;;;;;;;;6.60;82.10;;;;;;5081354;28;19919;-69
2021/03/30 00:32:08;;;;;;;;;;;6.50;82.40;;;;;;5080408;28;19916;-69
2021/03/30 00:34:33;;;;;;;;;;;6.50;82.00;;;;;;5089341;28;20266;-69
2021/03/30 00:37:02;;;;;;;;;;;6.70;80.80;;;;;;5093294;28;19973;-68
2021/03/30 00:39:27;;;;;;;;;;;6.90;80.30;;;;;;5076427;28;19912;-69
2021/03/30 00:41:53;;;;;;;;;;;7.10;79.80;;;;;;5086454;28;20348;-68
2021/03/30 00:44:18;;;;;;;;;;;7.10;80.00;;;;;;5081963;28;20003;-68
2021/03/30 00:46:44;;;;;;;;;;;6.90;80.40;;;;;;5083137;28;20380;-69
2021/03/30 00:49:10;;;;;;;;;;;6.90;79.70;;;;;;5088902;28;19944;-69
2021/03/30 00:51:35;;;;;;;;;;;6.80;79.90;;;;;;5078857;28;19970;-69
2021/03/30 00:54:01;;;;;;;;;;;6.80;80.40;;;;;;5090562;28;19913;-69
2021/03/30 00:56:27;;;;;;;;;;;6.70;81.30;;;;;;5076989;28;19913;-68
2021/03/30 00:58:55;;;;;;;;;;;6.60;81.90;;;;;;5091366;28;19919;-69
2021/03/30 01:01:24;;;;;;;;;;;6.40;82.20;;;;;;5088560;28;19916;-67
2021/03/30 01:03:49;;;;;;;;;;;6.40;83.00;;;;;;5059926;28;19972;-68
2021/03/30 01:06:15;;;;;;;;;;;6.40;83.10;;;;;;5085327;28;19916;-68
2021/03/30 01:08:43;;;;;;;;;;;6.40;83.30;;;;;;5090632;28;19920;-67
2021/03/30 01:11:16;;;;;;;;;;;6.60;82.50;;;;;;5096432;28;19908;-70
2021/03/30 01:14:00;;;;;;;;;;;6.70;81.90;;;;;;5090795;28;19917;-69
2021/03/30 01:16:30;;;;;;;;;;;6.70;81.40;;;;;;5081858;28;20007;-69
2021/03/30 01:19:15;;;;;;;;;;;6.90;80.70;;;;;;5065209;28;20262;-70
2021/03/30 01:21:49;;;;;;;;;;;6.80;81.00;;;;;;5090932;28;19916;-69
2021/03/30 01:24:18;;;;;;;;;;;6.70;81.40;;;;;;5083726;28;19919;-69
2021/03/30 01:26:47;;;;;;;;;;;6.80;80.60;;;;;;5087071;28;19946;-69
2021/03/30 01:29:41;;;;;;;;;;;6.90;80.30;;;;;;5094276;28;20198;-68
2021/03/30 01:32:27;;;;;;;;;;;6.80;80.90;;;;;;5079074;28;20010;-69
2021/03/30 01:34:54;;;;;;;;;;;6.90;79.90;;;;;;5074968;28;19966;-69
2021/03/30 01:37:20;;;;;;;;;;;7.10;79.10;;;;;;5076848;28;19924;-69
2021/03/30 01:39:49;;;;;;;;;;;7.20;79.10;;;;;;5075869;28;19916;-69
2021/03/30 01:42:14;;;;;;;;;;;7.10;79.40;;;;;;5079220;28;19931;-69
2021/03/30 01:44:40;;;;;;;;;;;6.80;80.80;;;;;;5079157;28;20178;-69
2021/03/30 01:47:06;;;;;;;;;;;6.50;82.10;;;;;;5086464;28;19920;-70
2021/03/30 01:49:33;;;;;;;;;;;6.20;83.30;;;;;;5068525;28;20259;-69
2021/03/30 01:51:59;;;;;;;;;;;6.00;84.50;;;;;;5076194;28;19957;-69
2021/03/30 01:54:25;;;;;;;;;;;5.70;85.40;;;;;;5086204;28;19916;-69
2021/03/30 01:56:54;;;;;;;;;;;5.50;86.40;;;;;;5064425;28;19975;-70
2021/03/30 01:59:21;;;;;;;;;;;5.60;86.30;;;;;;5085015;28;19919;-69
2021/03/30 02:01:47;;;;;;;;;;;5.80;85.10;;;;;;5085933;28;20007;-69
2021/03/30 02:04:13;;;;;;;;;;;6.00;84.20;;;;;;5086747;28;19920;-71
2021/03/30 02:06:41;;;;;;;;;;;6.10;84.10;;;;;;5085189;28;20000;-70
2021/03/30 02:09:09;;;;;;;;;;;6.00;84.20;;;;;;5081490;28;19916;-69
2021/03/30 02:11:46;;;;;;;;;;;6.00;84.40;;;;;;5091417;28;20239;-69
2021/03/30 02:14:12;;;;;;;;;;;6.00;83.50;;;;;;5086560;28;19995;-69
2021/03/30 02:16:40;;;;;;;;;;;6.00;83.50;;;;;;5084716;28;19973;-69
2021/03/30 02:19:17;;;;;;;;;;;5.90;83.80;;;;;;5086278;28;19916;-71
2021/03/30 02:21:51;;;;;;;;;;;5.90;84.40;;;;;;5076704;28;19919;-69
2021/03/30 02:24:17;;;;;;;;;;;5.90;84.20;;;;;;5088710;28;19912;-69
2021/03/30 02:26:44;;;;;;;;;;;6.00;84.20;;;;;;5085072;28;20379;-70
2021/03/30 02:29:12;;;;;;;;;;;6.00;83.70;;;;;;5088781;28;20319;-70
2021/03/30 02:31:39;;;;;;;;;;;6.20;83.00;;;;;;5085695;28;20274;-69
2021/03/30 02:34:06;;;;;;;;;;;6.40;82.20;;;;;;5074825;28;19919;-69
2021/03/30 02:36:32;;;;;;;;;;;6.60;81.30;;;;;;5090017;28;19920;-68
2021/03/30 02:39:06;;;;;;;;;;;6.50;81.50;;;;;;5081023;28;19919;-69
2021/03/30 02:41:32;;;;;;;;;;;6.50;81.20;;;;;;5087488;28;19919;-69
2021/03/30 02:43:58;;;;;;;;;;;6.60;80.80;;;;;;5090583;28;19991;-69
2021/03/30 02:46:26;;;;;;;;;;;6.40;80.90;;;;;;5082756;28;19924;-71
2021/03/30 02:48:53;;;;;;;;;;;6.50;81.10;;;;;;5080074;28;20014;-69
2021/03/30 02:51:21;;;;;;;;;;;6.50;81.40;;;;;;5073415;28;19931;-68
2021/03/30 02:53:48;;;;;;;;;;;6.50;81.50;;;;;;5078546;28;19955;-69
2021/03/30 02:56:14;;;;;;;;;;;6.50;81.30;;;;;;5078730;28;19913;-68
2021/03/30 02:58:40;;;;;;;;;;;6.60;81.00;;;;;;5071585;28;20266;-68
2021/03/30 03:01:06;;;;;;;;;;;6.60;80.50;;;;;;5093102;28;19912;-69
2021/03/30 03:03:33;;;;;;;;;;;6.60;80.70;;;;;;5096938;28;20206;-69
2021/03/30 03:05:59;;;;;;;;;;;6.50;80.10;;;;;;5063636;28;19912;-70
2021/03/30 03:08:25;;;;;;;;;;;6.40;80.10;;;;;;5088052;28;19923;-70
2021/03/30 03:10:52;;;;;;;;;;;6.30;81.00;;;;;;5079691;28;20331;-70
2021/03/30 03:13:17;;;;;;;;;;;6.40;81.20;;;;;;5088594;28;19921;-69
2021/03/30 03:15:44;;;;;;;;;;;6.50;80.60;;;;;;5084639;28;19913;-69
2021/03/30 03:18:10;;;;;;;;;;;6.50;80.70;;;;;;5092153;28;20287;-69
2021/03/30 03:20:37;;;;;;;;;;;6.40;80.90;;;;;;5086335;28;19969;-69
2021/03/30 03:23:04;;;;;;;;;;;6.40;81.20;;;;;;5069477;28;20233;-69
2021/03/30 03:25:29;;;;;;;;;;;6.30;81.40;;;;;;5095894;28;19982;-69
2021/03/30 03:27:55;;;;;;;;;;;6.20;81.90;;;;;;5087045;28;20522;-69
2021/03/30 03:30:23;;;;;;;;;;;6.30;81.30;;;;;;5087586;28;19995;-68
2021/03/30 03:32:48;;;;;;;;;;;6.50;80.60;;;;;;5088209;28;19957;-69
2021/03/30 03:35:14;;;;;;;;;;;6.60;80.60;;;;;;5094993;28;20329;-69
2021/03/30 03:37:40;;;;;;;;;;;6.50;80.30;;;;;;5062687;28;19916;-69
2021/03/30 03:40:06;;;;;;;;;;;6.60;80.30;;;;;;5061130;28;20065;-69
2021/03/30 03:42:31;;;;;;;;;;;6.60;80.10;;;;;;5083761;28;20003;-69
2021/03/30 03:44:59;;;;;;;;;;;6.70;80.10;;;;;;5086119;28;19920;-69
2021/03/30 03:47:25;;;;;;;;;;;6.70;80.10;;;;;;5059039;28;19935;-69
2021/03/30 03:49:50;;;;;;;;;;;6.60;80.50;;;;;;5085953;28;19916;-69
2021/03/30 03:52:16;;;;;;;;;;;6.60;80.30;;;;;;5086247;28;19919;-69
2021/03/30 03:54:43;;;;;;;;;;;6.60;80.90;;;;;;5082171;28;19912;-69
2021/03/30 03:57:12;;;;;;;;;;;6.60;80.80;;;;;;5082656;28;20313;-68
2021/03/30 03:59:40;;;;;;;;;;;6.70;80.50;;;;;;5087249;28;19951;-68
2021/03/30 04:02:10;;;;;;;;;;;6.80;80.40;;;;;;5094611;28;19974;-70
2021/03/30 04:04:38;;;;;;;;;;;6.80;80.20;;;;;;5083635;28;20299;-70
2021/03/30 04:07:04;;;;;;;;;;;6.80;80.30;;;;;;5087244;28;20319;-70
2021/03/30 04:09:31;;;;;;;;;;;6.70;80.70;;;;;;5078226;28;19983;-69
2021/03/30 04:11:58;;;;;;;;;;;6.70;81.10;;;;;;5065586;28;19908;-70
2021/03/30 04:14:24;;;;;;;;;;;6.70;80.80;;;;;;5079467;28;19913;-69
2021/03/30 04:16:52;;;;;;;;;;;6.70;80.90;;;;;;5090174;28;20339;-69
2021/03/30 04:19:18;;;;;;;;;;;6.80;80.30;;;;;;5084016;28;19923;-69
2021/03/30 04:21:43;;;;;;;;;;;6.90;79.80;;;;;;5086043;28;20372;-69
2021/03/30 04:24:09;;;;;;;;;;;6.90;80.10;;;;;;5086276;28;20224;-69
2021/03/30 04:26:38;;;;;;;;;;;6.80;80.50;;;;;;5077709;28;20301;-69
2021/03/30 04:29:05;;;;;;;;;;;6.80;80.90;;;;;;5067965;28;20323;-69
2021/03/30 04:31:30;;;;;;;;;;;6.70;80.90;;;;;;5069231;28;19913;-68
2021/03/30 04:33:56;;;;;;;;;;;6.80;80.70;;;;;;5083089;28;19920;-70
2021/03/30 04:36:22;;;;;;;;;;;6.80;80.70;;;;;;5085738;28;19931;-69
2021/03/30 04:38:47;;;;;;;;;;;6.80;81.00;;;;;;5090823;28;19912;-70
2021/03/30 04:41:13;;;;;;;;;;;6.60;81.50;;;;;;5080015;28;19909;-70
2021/03/30 04:43:39;;;;;;;;;;;6.30;82.00;;;;;;5077663;28;19916;-70
2021/03/30 04:46:05;;;;;;;;;;;5.90;83.70;;;;;;5084455;28;20018;-69
2021/03/30 04:48:31;;;;;;;;;;;5.60;84.90;;;;;;5063288;28;19958;-70
2021/03/30 04:50:57;;;;;;;;;;;5.60;85.70;;;;;;5078782;28;20312;-68
2021/03/30 04:53:22;;;;;;;;;;;5.70;85.70;;;;;;5082929;28;20304;-70
2021/03/30 04:55:48;;;;;;;;;;;5.80;85.10;;;;;;5093689;28;20215;-71
2021/03/30 04:58:13;;;;;;;;;;;5.90;84.50;;;;;;5078588;28;19923;-70
2021/03/30 05:00:38;;;;;;;;;;;6.00;84.00;;;;;;5083528;28;20011;-69
2021/03/30 05:03:04;;;;;;;;;;;6.00;83.60;;;;;;5090757;28;19987;-69
2021/03/30 05:05:30;;;;;;;;;;;6.00;83.80;;;;;;5086869;28;19919;-68
2021/03/30 05:07:55;;;;;;;;;;;5.90;84.10;;;;;;5075009;28;19962;-69
2021/03/30 05:10:21;;;;;;;;;;;5.70;84.40;;;;;;5080403;28;19924;-69
2021/03/30 05:12:46;;;;;;;;;;;5.90;83.90;;;;;;5090144;28;19912;-70
2021/03/30 05:15:12;;;;;;;;;;;5.90;84.30;;;;;;5095571;28;20028;-70
2021/03/30 05:17:37;;;;;;;;;;;5.80;84.20;;;;;;5086540;28;19920;-69
2021/03/30 05:20:04;;;;;;;;;;;5.70;84.70;;;;;;5078508;28;19912;-69
2021/03/30 05:22:29;;;;;;;;;;;5.60;85.00;;;;;;5075510;28;20352;-69
2021/03/30 05:24:58;;;;;;;;;;;5.60;84.70;;;;;;5085080;28;19920;-69
2021/03/30 05:27:24;;;;;;;;;;;6.00;82.80;;;;;;5095492;28;19912;-70
2021/03/30 05:29:50;;;;;;;;;;;6.10;82.70;;;;;;5069552;28;19923;-71
2021/03/30 05:32:16;;;;;;;;;;;6.10;83.40;;;;;;5075818;28;20378;-70
2021/03/30 05:34:43;;;;;;;;;;;6.00;83.20;;;;;;5082613;28;19965;-70
2021/03/30 05:37:09;;;;;;;;;;;6.00;83.10;;;;;;5089586;28;20432;-69
2021/03/30 05:39:34;;;;;;;;;;;5.90;83.40;;;;;;5087798;28;20022;-69
2021/03/30 05:42:00;;;;;;;;;;;6.10;82.40;;;;;;5079623;28;19912;-70
2021/03/30 05:44:26;;;;;;;;;;;6.30;81.60;;;;;;5096026;28;19940;-72
2021/03/30 05:49:41;;;;;;;;;;;6.50;80.80;;;;;;5075581;28;20007;-69
2021/03/30 05:52:08;;;;;;;;;;;6.70;79.40;;;;;;5079383;28;19934;-69
2021/03/30 05:54:35;;;;;;;;;;;7.00;78.90;;;;;;5094344;28;20181;-70
2021/03/30 05:57:01;;;;;;;;;;;6.90;80.30;;;;;;5091269;28;20018;-69
2021/03/30 05:59:31;;;;;;;;;;;6.90;79.50;;;;;;5094871;28;20303;-69
2021/03/30 06:01:57;;;;;;;;;;;7.00;79.30;;;;;;5080391;28;20255;-72
2021/03/30 06:04:23;;;;;;;;;;;7.00;79.50;;;;;;5075706;28;19909;-70
2021/03/30 06:06:49;;;;;;;;;;;7.10;78.90;;;;;;5083094;28;19918;-69
2021/03/30 06:09:17;;;;;;;;;;;7.20;77.70;;;;;;5056461;28;20011;-69
2021/03/30 06:11:42;;;;;;;;;;;7.30;78.20;;;;;;5093925;28;20027;-70
2021/03/30 06:14:08;;;;;;;;;;;7.40;79.00;;;;;;5068554;28;19964;-69
2021/03/30 06:16:36;;;;;;;;;;;7.30;79.90;;;;;;5088681;28;19912;-70
2021/03/30 06:19:02;;;;;;;;;;;7.30;80.40;;;;;;5093606;28;20003;-70
2021/03/30 06:21:27;;;;;;;;;;;7.40;80.30;;;;;;5079335;28;20098;-69
2021/03/30 06:23:55;;;;;;;;;;;7.40;80.60;;;;;;5077973;28;19965;-69
2021/03/30 06:26:23;;;;;;;;;;;7.50;80.30;;;;;;5083322;28;19966;-70
2021/03/30 06:28:48;;;;;;;;;;;7.70;80.80;;;;;;5090379;28;19915;-69
2021/03/30 06:31:14;;;;;;;;;;;8.00;78.30;;;;;;5081129;28;20049;-70
2021/03/30 06:33:47;;;;;;;;;;;8.30;76.70;;;;;;5080141;28;20305;-70
2021/03/30 06:36:12;;;;;;;;;;;8.60;76.40;;;;;;5078345;28;20229;-69
2021/03/30 06:38:57;;;;;;;;;;;8.80;76.80;;;;;;5059480;28;19920;-70
2021/03/30 06:41:45;;;;;;;;;;;9.00;77.80;;;;;;5078704;28;19991;-70
2021/03/30 06:44:25;;;;;;;;;;;9.30;74.10;;;;;;5078548;28;20314;-68
2021/03/30 06:46:52;;;;;;;;;;;9.70;72.00;;;;;;5078579;28;20030;-67
2021/03/30 06:49:18;;;;;;;;;;;9.70;77.30;;;;;;5078687;28;20538;-67
2021/03/30 06:51:45;;;;;;;;;;;9.70;77.90;;;;;;5081808;28;20032;-67
2021/03/30 06:54:11;;;;;;;;;;;9.70;76.20;;;;;;5097621;28;19912;-67
2021/03/30 06:56:49;;;;;;;;;;;10.00;73.00;;;;;;5080646;28;19908;-71
2021/03/30 06:59:15;;;;;;;;;;;10.30;68.70;;;;;;5091731;28;20269;-69
2021/03/30 07:01:41;;;;;;;;;;;10.40;74.60;;;;;;5081458;28;19949;-70
2021/03/30 07:04:07;;;;;;;;;;;10.50;73.60;;;;;;5082549;28;19920;-70
2021/03/30 07:06:33;;;;;;;;;;;10.70;70.90;;;;;;5078388;28;19908;-70
2021/03/30 07:08:59;;;;;;;;;;;10.80;73.80;;;;;;5078232;28;19958;-70
2021/03/30 07:11:25;;;;;;;;;;;10.90;72.00;;;;;;5078348;28;19912;-69
2021/03/30 07:13:50;;;;;;;;;;;11.00;72.10;;;;;;5090552;28;19920;-69
2021/03/30 07:16:19;;;;;;;;;;;11.10;72.50;;;;;;5096737;28;19916;-70
2021/03/30 07:18:47;;;;;;;;;;;11.20;71.90;;;;;;5098451;28;19963;-70
2021/03/30 07:21:17;;;;;;;;;;;11.40;71.80;;;;;;5089444;28;20295;-69
2021/03/30 07:24:03;;;;;;;;;;;11.50;71.40;;;;;;5085448;28;20216;-69
2021/03/30 07:26:31;;;;;;;;;;;11.70;71.30;;;;;;5093786;28;19919;-69
2021/03/30 07:28:59;;;;;;;;;;;11.80;70.50;;;;;;5086288;28;20233;-69
2021/03/30 07:31:29;;;;;;;;;;;12.00;68.80;;;;;;5083964;28;19938;-69
2021/03/30 07:34:06;;;;;;;;;;;12.20;68.50;;;;;;5097967;28;19965;-70
2021/03/30 07:36:37;;;;;;;;;;;12.40;69.10;;;;;;5087044;28;20220;-70
2021/03/30 07:39:04;;;;;;;;;;;12.60;68.90;;;;;;5085078;28;20316;-70
2021/03/30 07:41:29;;;;;;;;;;;12.70;68.40;;;;;;5097356;28;19953;-70
2021/03/30 07:43:59;;;;;;;;;;;12.80;67.60;;;;;;5091757;28;19924;-70
2021/03/30 07:46:25;;;;;;;;;;;12.90;67.50;;;;;;5088175;28;20379;-69
2021/03/30 07:48:50;;;;;;;;;;;13.00;66.70;;;;;;5095858;28;19959;-70
2021/03/30 07:51:22;;;;;;;;;;;13.10;66.80;;;;;;5094164;28;19920;-68
2021/03/30 07:54:06;;;;;;;;;;;13.20;66.20;;;;;;5092299;28;20315;-69
2021/03/30 07:56:38;;;;;;;;;;;13.30;66.70;;;;;;5083113;28;19913;-69
2021/03/30 07:59:03;;;;;;;;;;;13.40;67.00;;;;;;5087761;28;20212;-69
2021/03/30 08:01:31;;;;;;;;;;;13.50;67.20;;;;;;5097395;28;19908;-69
2021/03/30 08:03:58;;;;;;;;;;;13.70;67.60;;;;;;5080890;28;20324;-68
2021/03/30 08:06:24;;;;;;;;;;;13.90;68.80;;;;;;5092433;28;19916;-70
2021/03/30 08:09:09;;;;;;;;;;;14.10;68.70;;;;;;5088470;28;19913;-69
2021/03/30 08:14:04;;;;;;;;;;;14.40;67.30;;;;;;5080321;28;19912;-69
2021/03/30 08:16:30;;;;;;;;;;;14.90;65.90;;;;;;5076812;28;19916;-69
2021/03/30 08:18:57;;;;;;;;;;;15.90;64.20;;;;;;5095497;28;19912;-70
2021/03/30 08:21:23;;;;;;;;;;;17.20;61.60;;;;;;5096322;28;19912;-70
2021/03/30 08:23:51;;;;;;;;;;;18.20;59.20;;;;;;5081546;28;19917;-70
2021/03/30 08:26:17;;;;;;;;;;;19.40;56.50;;;;;;5081580;28;19922;-69
2021/03/30 08:29:06;;;;;;;;;;;19.80;56.50;;;;;;5097052;28;19908;-69
2021/03/30 08:31:34;;;;;;;;;;;20.60;55.30;;;;;;5077020;28;19913;-69
2021/03/30 08:34:01;;;;;;;;;;;20.70;55.00;;;;;;5077546;28;19917;-70
2021/03/30 08:36:29;;;;;;;;;;;20.10;56.20;;;;;;5076579;28;20003;-69
2021/03/30 08:38:58;;;;;;;;;;;20.20;56.10;;;;;;5079775;28;20354;-69
2021/03/30 08:41:47;;;;;;;;;;;20.70;54.80;;;;;;5084448;28;19923;-70
2021/03/30 08:44:13;;;;;;;;;;;20.40;55.20;;;;;;5078696;28;19927;-70
2021/03/30 08:46:40;;;;;;;;;;;21.00;54.70;;;;;;5075933;28;19920;-70
2021/03/30 08:49:33;;;;;;;;;;;21.50;53.30;;;;;;5081585;28;19912;-70
2021/03/30 08:52:06;;;;;;;;;;;21.80;52.30;;;;;;5066161;28;19926;-69
2021/03/30 08:54:36;;;;;;;;;;;21.40;52.40;;;;;;5073555;28;19912;-69
2021/03/30 08:57:06;;;;;;;;;;;22.10;52.30;;;;;;5069044;28;19917;-70
2021/03/30 08:59:33;;;;;;;;;;;22.10;51.90;;;;;;5056186;28;19952;-69
2021/03/30 09:02:00;;;;;;;;;;;22.10;52.10;;;;;;5065218;28;19912;-70
2021/03/30 09:04:29;;;;;;;;;;;21.90;53.00;;;;;;5075790;28;19917;-69
2021/03/30 09:06:55;;;;;;;;;;;22.40;51.50;;;;;;5066933;28;19916;-70
2021/03/30 09:09:22;;;;;;;;;;;23.00;51.80;;;;;;5055095;28;19967;-70
2021/03/30 09:11:47;;;;;;;;;;;23.50;50.70;;;;;;5057020;28;19939;-69
2021/03/30 09:14:16;;;;;;;;;;;23.30;51.00;;;;;;5056221;28;19909;-70
2021/03/30 09:16:43;;;;;;;;;;;23.40;50.70;;;;;;5060877;28;20015;-70
2021/03/30 09:19:13;;;;;;;;;;;23.10;51.30;;;;;;5057154;28;19958;-69
2021/03/30 09:21:39;;;;;;;;;;;23.00;52.00;;;;;;5055982;28;20210;-69
2021/03/30 09:24:10;;;;;;;;;;;22.90;52.70;;;;;;5057229;28;20313;-70
2021/03/30 09:26:40;;;;;;;;;;;23.30;52.40;;;;;;5072340;28;19912;-70
2021/03/30 09:29:06;;;;;;;;;;;23.20;52.70;;;;;;5061539;28;19916;-70
2021/03/30 09:31:32;;;;;;;;;;;23.10;52.90;;;;;;5061350;28;19960;-69
2021/03/30 09:34:00;;;;;;;;;;;23.10;53.70;;;;;;5059573;28;20619;-70
2021/03/30 09:36:26;;;;;;;;;;;23.50;52.30;;;;;;5047651;28;19913;-69
2021/03/30 09:38:53;;;;;;;;;;;23.70;51.70;;;;;;5054404;28;19917;-68
2021/03/30 09:41:37;;;;;;;;;;;23.70;51.40;;;;;;5058093;28;19909;-68
2021/03/30 09:44:03;;;;;;;;;;;23.40;52.20;;;;;;5075346;28;19912;-67
2021/03/30 09:46:29;;;;;;;;;;;23.50;51.70;;;;;;5080736;28;19908;-68
2021/03/30 09:48:56;;;;;;;;;;;23.00;52.70;;;;;;5077763;28;19917;-68
2021/03/30 09:51:21;;;;;;;;;;;23.50;52.70;;;;;;5099136;28;20495;-70
2021/03/30 09:53:47;;;;;;;;;;;23.80;51.20;;;;;;5088948;28;19916;-69
2021/03/30 09:56:22;;;;;;;;;;;24.00;51.50;;;;;;5100981;28;19942;-69
2021/03/30 09:58:54;;;;;;;;;;;23.70;52.10;;;;;;5082962;28;19916;-70
2021/03/30 10:01:20;;;;;;;;;;;23.90;51.60;;;;;;5082395;28;19923;-69
2021/03/30 10:03:46;;;;;;;;;;;24.10;51.20;;;;;;5082627;28;20197;-71
2021/03/30 10:06:18;;;;;;;;;;;24.10;51.50;;;;;;5101208;28;19965;-69
2021/03/30 10:08:44;;;;;;;;;;;24.50;50.60;;;;;;5084016;28;19944;-70
2021/03/30 10:11:10;;;;;;;;;;;24.60;49.50;;;;;;5064809;28;19967;-70
2021/03/30 10:13:37;;;;;;;;;;;24.30;50.00;;;;;;5098007;28;19915;-70
2021/03/30 10:16:07;;;;;;;;;;;24.80;47.90;;;;;;5102608;28;19914;-69
2021/03/30 10:18:33;;;;;;;;;;;25.20;49.60;;;;;;5087511;28;19916;-69
2021/03/30 10:21:00;;;;;;;;;;;25.50;48.90;;;;;;5082260;28;19909;-70
2021/03/30 10:23:29;;;;;;;;;;;25.50;48.60;;;;;;5063420;28;19912;-69
2021/03/30 10:25:54;;;;;;;;;;;25.40;48.00;;;;;;5086548;28;20000;-68
2021/03/30 10:28:27;;;;;;;;;;;25.10;47.80;;;;;;5102450;28;19999;-68
2021/03/30 10:31:01;;;;;;;;;;;24.60;48.70;;;;;;5102045;28;19914;-70
2021/03/30 10:33:33;;;;;;;;;;;24.70;48.90;;;;;;5101468;28;20327;-69
2021/03/30 10:35:59;;;;;;;;;;;24.50;48.30;;;;;;5084615;28;19973;-69
2021/03/30 10:38:26;;;;;;;;;;;24.80;49.30;;;;;;5081683;28;19921;-70
2021/03/30 10:41:01;;;;;;;;;;;25.50;48.00;;;;;;5082121;28;19909;-70
2021/03/30 10:43:27;;;;;;;;;;;25.40;47.50;;;;;;5083210;28;19916;-69
2021/03/30 10:45:53;;;;;;;;;;;24.40;48.80;;;;;;5081955;28;19908;-69
2021/03/30 10:48:19;;;;;;;;;;;24.00;50.40;;;;;;5094479;28;19919;-70
2021/03/30 10:50:44;;;;;;;;;;;24.50;45.60;;;;;;5098028;28;19920;-69
2021/03/30 10:53:10;;;;;;;;;;;25.00;41.00;;;;;;5097933;28;19970;-70
2021/03/30 10:55:37;;;;;;;;;;;25.60;47.10;;;;;;5100496;28;19916;-70
2021/03/30 10:58:08;;;;;;;;;;;25.20;47.50;;;;;;5098491;28;19916;-69
2021/03/30 11:00:34;;;;;;;;;;;25.60;48.20;;;;;;5086029;28;19912;-69
2021/03/30 11:03:03;;;;;;;;;;;26.40;46.60;;;;;;5078461;28;19909;-69
2021/03/30 11:05:29;;;;;;;;;;;26.20;46.60;;;;;;5079254;28;19995;-70
2021/03/30 11:07:54;;;;;;;;;;;26.70;46.50;;;;;;5084520;28;20086;-70
2021/03/30 11:10:22;;;;;;;;;;;27.30;44.90;;;;;;5078858;28;19969;-70
2021/03/30 11:12:48;;;;;;;;;;;27.50;44.40;;;;;;5091211;28;19912;-69
2021/03/30 11:15:13;;;;;;;;;;;27.30;44.40;;;;;;5098189;28;20340;-70
2021/03/30 11:17:39;;;;;;;;;;;27.40;42.90;;;;;;5096831;28;19959;-70
2021/03/30 11:20:06;;;;;;;;;;;27.40;44.70;;;;;;5098478;28;19917;-70
2021/03/30 11:22:31;;;;;;;;;;;27.70;43.80;;;;;;5087128;28;20005;-69
2021/03/30 11:25:00;;;;;;;;;;;27.30;42.80;;;;;;5084454;28;19944;-70
2021/03/30 11:27:26;;;;;;;;;;;26.60;44.40;;;;;;5096335;28;19970;-71
2021/03/30 11:30:11;;;;;;;;;;;26.70;43.10;;;;;;5098360;28;19908;-70
2021/03/30 11:32:49;;;;;;;;;;;26.60;43.40;;;;;;5081683;28;20003;-70
2021/03/30 11:35:21;;;;;;;;;;;26.70;40.00;;;;;;5078601;28;19916;-70
2021/03/30 11:40:47;;;;;;;;;;;26.80;42.00;;;;;;5000643;28;20223;-70
2021/03/30 11:43:13;;;;;;;;;;;27.50;39.90;;;;;;5074894;28;19927;-70
2021/03/30 11:45:39;;;;;;;;;;;27.90;38.10;;;;;;5093368;28;19916;-71
2021/03/30 11:48:05;;;;;;;;;;;27.60;37.70;;;;;;5096220;28;19922;-70
2021/03/30 11:50:31;;;;;;;;;;;27.60;38.20;;;;;;5094768;28;20381;-69
2021/03/30 11:52:56;;;;;;;;;;;27.90;39.80;;;;;;5076738;28;20289;-69
2021/03/30 11:55:22;;;;;;;;;;;28.00;40.90;;;;;;5089175;28;19919;-70
2021/03/30 11:57:49;;;;;;;;;;;27.80;41.80;;;;;;5077175;28;19970;-70
2021/03/30 12:00:14;;;;;;;;;;;27.80;36.00;;;;;;5080980;28;20001;-69
2021/03/30 12:02:40;;;;;;;;;;;27.50;36.00;;;;;;5092265;28;19912;-70
2021/03/30 12:05:07;;;;;;;;;;;27.20;40.70;;;;;;5094869;28;20554;-69
2021/03/30 12:07:32;;;;;;;;;;;26.80;44.40;;;;;;5078574;28;19913;-70
2021/03/30 12:09:58;;;;;;;;;;;27.00;39.60;;;;;;5094025;28;19920;-69
2021/03/30 12:12:23;;;;;;;;;;;27.10;38.60;;;;;;5096743;28;19912;-69
2021/03/30 12:14:49;;;;;;;;;;;26.90;37.50;;;;;;5097560;28;19999;-70
2021/03/30 12:17:15;;;;;;;;;;;26.50;36.00;;;;;;5079271;28;19930;-70
2021/03/30 12:19:40;;;;;;;;;;;26.20;38.20;;;;;;5097389;28;19908;-69
2021/03/30 12:22:09;;;;;;;;;;;26.20;36.90;;;;;;5095548;28;19920;-70
2021/03/30 12:24:34;;;;;;;;;;;26.30;41.60;;;;;;5075679;28;19916;-69
2021/03/30 12:27:00;;;;;;;;;;;26.50;40.60;;;;;;5076898;28;20224;-69
2021/03/30 12:29:25;;;;;;;;;;;26.70;40.80;;;;;;5076636;28;19908;-69
2021/03/30 12:31:51;;;;;;;;;;;26.50;39.10;;;;;;5083624;28;20289;-69
2021/03/30 12:34:16;;;;;;;;;;;26.40;40.50;;;;;;5059039;28;19913;-68
2021/03/30 12:36:42;;;;;;;;;;;26.20;39.60;;;;;;5082828;28;19919;-68
2021/03/30 12:39:08;;;;;;;;;;;25.60;39.20;;;;;;5094147;28;19955;-68
2021/03/30 12:41:33;;;;;;;;;;;25.50;37.40;;;;;;5095600;28;20236;-68
2021/03/30 12:43:59;;;;;;;;;;;25.70;37.40;;;;;;5076775;28;19908;-68
2021/03/30 12:46:25;;;;;;;;;;;25.70;37.20;;;;;;5080976;28;19977;-70
2021/03/30 12:48:50;;;;;;;;;;;25.60;40.50;;;;;;5097038;28;19947;-70
2021/03/30 12:51:16;;;;;;;;;;;24.70;38.10;;;;;;5088090;28;19943;-70
2021/03/30 12:53:42;;;;;;;;;;;24.70;40.30;;;;;;5075265;28;19962;-70
2021/03/30 12:56:11;;;;;;;;;;;24.50;42.00;;;;;;5076971;28;19912;-70
2021/03/30 12:58:36;;;;;;;;;;;24.50;43.90;;;;;;5077314;28;19923;-70
2021/03/30 13:01:05;;;;;;;;;;;24.90;46.10;;;;;;5076505;28;20220;-69
2021/03/30 13:03:33;;;;;;;;;;;25.00;43.00;;;;;;5083069;28;19920;-69
2021/03/30 13:06:01;;;;;;;;;;;25.20;43.20;;;;;;5093828;28;20006;-69
2021/03/30 13:08:26;;;;;;;;;;;25.00;43.10;;;;;;5069804;28;19912;-69
2021/03/30 13:10:52;;;;;;;;;;;25.30;43.50;;;;;;5091179;28;20007;-69
2021/03/30 13:13:17;;;;;;;;;;;25.60;41.80;;;;;;5094255;28;20195;-69
2021/03/30 13:15:43;;;;;;;;;;;25.70;42.90;;;;;;5096474;28;19908;-69
2021/03/30 13:18:08;;;;;;;;;;;25.70;41.90;;;;;;5089562;28;19916;-69
2021/03/30 13:20:34;;;;;;;;;;;25.80;41.20;;;;;;5083640;28;19912;-69
2021/03/30 13:23:01;;;;;;;;;;;25.90;41.00;;;;;;5076208;28;19912;-69
2021/03/30 13:25:35;;;;;;;;;;;25.70;42.20;;;;;;5093924;28;20075;-69
2021/03/30 13:28:01;;;;;;;;;;;25.30;43.20;;;;;;5096291;28;19961;-69
2021/03/30 13:30:27;;;;;;;;;;;25.10;42.50;;;;;;5093849;28;19912;-69
2021/03/30 13:32:53;;;;;;;;;;;25.20;45.20;;;;;;5095560;28;19919;-69
2021/03/30 13:35:19;;;;;;;;;;;25.40;42.20;;;;;;5091086;28;19931;-69
2021/03/30 13:37:44;;;;;;;;;;;25.50;39.90;;;;;;5084581;28;20351;-69
2021/03/30 13:40:10;;;;;;;;;;;25.60;40.70;;;;;;5094707;28;20216;-69
2021/03/30 13:42:36;;;;;;;;;;;25.50;41.30;;;;;;5076490;28;19999;-69
2021/03/30 13:45:02;;;;;;;;;;;24.90;41.90;;;;;;5089477;28;20222;-69
2021/03/30 13:47:27;;;;;;;;;;;24.50;42.10;;;;;;5090796;28;19934;-69
2021/03/30 13:49:53;;;;;;;;;;;24.70;43.20;;;;;;5083384;28;19957;-70
2021/03/30 13:52:18;;;;;;;;;;;25.30;42.60;;;;;;5078641;28;19919;-69
2021/03/30 13:54:44;;;;;;;;;;;25.00;41.50;;;;;;5090145;28;19916;-69
2021/03/30 13:57:09;;;;;;;;;;;24.60;40.60;;;;;;5093146;28;19927;-69
2021/03/30 13:59:35;;;;;;;;;;;24.40;40.30;;;;;;5087369;28;20224;-69
2021/03/30 14:02:01;;;;;;;;;;;24.70;40.50;;;;;;5093885;28;19919;-69
2021/03/30 14:04:26;;;;;;;;;;;25.00;39.50;;;;;;5089379;28;19912;-69
2021/03/30 14:06:52;;;;;;;;;;;25.20;41.10;;;;;;5085735;28;19912;-69
2021/03/30 14:09:19;;;;;;;;;;;25.00;41.00;;;;;;5081604;28;19995;-69
2021/03/30 14:11:50;;;;;;;;;;;24.80;42.40;;;;;;5093272;28;20049;-70
2021/03/30 14:14:26;;;;;;;;;;;25.10;41.40;;;;;;5092608;28;19912;-69
2021/03/30 14:19:38;;;;;;;;;;;25.10;40.90;;;;;;5083551;28;19912;-69
2021/03/30 14:22:08;;;;;;;;;;;24.90;41.00;;;;;;5090022;28;20321;-69
2021/03/30 14:24:38;;;;;;;;;;;24.70;40.90;;;;;;5076891;28;20331;-69
2021/03/30 14:27:04;;;;;;;;;;;24.40;40.80;;;;;;5083383;28;19927;-69
2021/03/30 14:29:29;;;;;;;;;;;24.20;40.90;;;;;;5079296;28;19912;-68
2021/03/30 14:31:55;;;;;;;;;;;24.30;40.30;;;;;;5097267;28;19914;-69
2021/03/30 14:34:20;;;;;;;;;;;24.70;40.10;;;;;;5097514;28;19927;-69
2021/03/30 14:36:46;;;;;;;;;;;25.10;39.20;;;;;;5099503;28;19909;-70